Time;durP1;ratioP1;P1;durP2;ratioP2;P2;SDS_P1;SDS_P2;PMS_P1;PMS_P2;Temp;Humidity;BMP_temperature;BMP_pressure;BME280_temperature;BME280_humidity;BME280_pressure;Samples;Min_cycle;Max_cycle;Signal;HPM_P1;HPM_P2
2022/04/27 00:01:30;;;;;;;6.93;4.55;;;16.10;58.10;;;;;;4209221;28;20052;-65
2022/04/27 00:03:53;;;;;;;6.03;4.18;;;16.10;58.10;;;;;;4208758;28;20101;-65
2022/04/27 00:06:15;;;;;;;6.38;4.40;;;16.10;58.10;;;;;;4209740;28;20505;-66
2022/04/27 00:08:39;;;;;;;4.50;4.10;;;16.10;58.10;;;;;;4192408;28;20079;-65
2022/04/27 00:11:01;;;;;;;6.47;4.18;;;16.10;58.20;;;;;;4192062;28;20187;-64
2022/04/27 00:13:23;;;;;;;7.70;4.70;;;16.10;58.20;;;;;;4192259;28;20156;-64
2022/04/27 00:15:45;;;;;;;4.55;4.15;;;16.10;58.20;;;;;;4195859;28;20122;-65
2022/04/27 00:18:08;;;;;;;6.20;4.57;;;16.10;58.20;;;;;;4208441;28;20552;-65
2022/04/27 00:20:30;;;;;;;7.32;4.78;;;16.10;58.30;;;;;;4207569;28;20525;-65
2022/04/27 00:22:52;;;;;;;8.88;5.07;;;16.00;58.20;;;;;;4207152;28;20051;-65
2022/04/27 00:25:16;;;;;;;6.05;4.55;;;16.10;58.30;;;;;;4208762;28;20106;-66
2022/04/27 00:27:38;;;;;;;8.55;4.25;;;16.00;58.40;;;;;;4208492;28;20050;-65
2022/04/27 00:30:01;;;;;;;9.00;4.60;;;16.00;58.40;;;;;;4207142;28;20130;-64
2022/04/27 00:32:25;;;;;;;7.68;4.90;;;16.00;58.40;;;;;;4208942;28;20075;-65
2022/04/27 00:34:47;;;;;;;5.65;4.53;;;16.00;58.40;;;;;;4208940;28;20040;-65
2022/04/27 00:37:09;;;;;;;12.93;5.20;;;16.00;58.50;;;;;;4222832;28;20085;-65
2022/04/27 00:39:31;;;;;;;8.73;5.05;;;16.00;58.50;;;;;;4211104;28;20055;-63
2022/04/27 00:42:02;;;;;;;5.15;3.95;;;16.00;58.50;;;;;;4212506;28;20051;-63
2022/04/27 00:44:24;;;;;;;6.72;4.50;;;16.00;58.60;;;;;;4209926;28;20050;-65
2022/04/27 00:46:46;;;;;;;8.00;4.82;;;16.00;58.50;;;;;;4211629;28;20057;-65
2022/04/27 00:49:08;;;;;;;5.53;4.90;;;15.90;58.50;;;;;;4212030;28;20051;-65
2022/04/27 00:51:30;;;;;;;14.52;5.60;;;16.00;58.60;;;;;;4210436;28;20144;-65
2022/04/27 00:53:53;;;;;;;6.53;5.03;;;15.90;58.60;;;;;;4211089;28;20486;-65
2022/04/27 00:56:17;;;;;;;9.48;4.90;;;15.90;58.70;;;;;;4210198;28;20044;-66
2022/04/27 00:58:41;;;;;;;7.15;5.28;;;15.90;58.60;;;;;;4210389;28;20047;-64
2022/04/27 01:01:13;;;;;;;6.88;4.90;;;15.90;58.70;;;;;;4210304;28;20055;-64
2022/04/27 01:03:36;;;;;;;6.82;4.53;;;15.90;58.80;;;;;;4211173;28;20463;-65
2022/04/27 01:05:59;;;;;;;6.25;4.53;;;15.90;58.90;;;;;;4209478;28;20055;-64
2022/04/27 01:08:21;;;;;;;6.00;4.80;;;15.90;58.80;;;;;;4195831;28;20040;-63
2022/04/27 01:10:47;;;;;;;5.55;4.53;;;15.90;58.90;;;;;;4210175;28;20063;-64
2022/04/27 01:13:10;;;;;;;7.03;4.95;;;15.90;59.00;;;;;;4210768;28;20217;-64
2022/04/27 01:15:34;;;;;;;5.65;3.95;;;15.90;59.00;;;;;;4209540;28;20044;-64
2022/04/27 01:17:58;;;;;;;9.18;4.80;;;15.90;59.00;;;;;;4211511;28;20553;-65
2022/04/27 01:20:23;;;;;;;6.82;4.65;;;15.80;59.00;;;;;;4209432;28;20572;-65
2022/04/27 01:22:47;;;;;;;5.15;4.68;;;15.80;58.90;;;;;;4209322;28;20434;-69
2022/04/27 01:25:10;;;;;;;7.75;5.22;;;15.80;59.60;;;;;;4209808;28;20094;-64
2022/04/27 01:27:32;;;;;;;6.05;4.50;;;15.80;58.80;;;;;;4210708;28;20055;-66
2022/04/27 01:29:54;;;;;;;6.97;4.90;;;15.80;58.80;;;;;;4209838;28;20048;-66
2022/04/27 01:32:16;;;;;;;8.73;5.50;;;15.80;58.90;;;;;;4211152;28;20066;-65
2022/04/27 01:34:38;;;;;;;8.98;5.13;;;15.80;58.90;;;;;;4209223;28;20105;-65
2022/04/27 01:39:39;;;;;;;5.68;4.82;;;15.80;59.00;;;;;;4209761;28;20048;-65
2022/04/27 01:42:01;;;;;;;6.55;4.68;;;15.80;59.00;;;;;;4209627;28;20051;-65
2022/04/27 01:44:23;;;;;;;6.50;4.45;;;15.80;59.00;;;;;;4210117;28;20066;-65
2022/04/27 01:46:45;;;;;;;6.10;5.47;;;15.80;59.10;;;;;;4205628;28;20383;-65
2022/04/27 01:49:07;;;;;;;9.88;4.95;;;15.70;59.00;;;;;;4209308;28;20048;-65
2022/04/27 01:54:18;;;;;;;6.65;5.45;;;15.70;59.10;;;;;;4209579;28;20047;-63
2022/04/27 01:56:45;;;;;;;8.18;5.03;;;15.80;59.20;;;;;;4209010;28;20126;-64
2022/04/27 01:59:09;;;;;;;7.93;5.22;;;15.70;59.20;;;;;;4208602;28;20052;-64
2022/04/27 02:01:32;;;;;;;6.75;5.72;;;15.70;59.20;;;;;;4209444;28;20048;-65
2022/04/27 02:03:55;;;;;;;6.80;5.20;;;15.70;59.20;;;;;;4195320;28;20139;-64
2022/04/27 02:06:19;;;;;;;7.25;5.03;;;15.70;59.20;;;;;;4194734;28;20067;-65
2022/04/27 02:08:42;;;;;;;5.68;5.18;;;15.70;59.20;;;;;;4209431;28;20101;-65
2022/04/27 02:11:04;;;;;;;7.35;5.28;;;15.70;59.20;;;;;;4210840;28;20098;-65
2022/04/27 02:13:33;;;;;;;9.68;5.82;;;15.70;59.30;;;;;;4194831;28;20056;-65
2022/04/27 02:15:57;;;;;;;6.55;5.32;;;15.70;59.30;;;;;;4209027;28;20102;-65
2022/04/27 02:18:27;;;;;;;7.15;5.35;;;15.70;59.40;;;;;;4208555;28;20056;-64
2022/04/27 02:20:50;;;;;;;10.85;5.53;;;15.70;59.40;;;;;;4210084;28;20441;-65
2022/04/27 02:23:12;;;;;;;7.50;6.75;;;15.70;59.50;;;;;;4209463;28;20148;-65
2022/04/27 02:25:34;;;;;;;7.38;6.10;;;15.70;59.50;;;;;;4209013;28;20051;-66
2022/04/27 02:27:57;;;;;;;8.20;6.55;;;15.70;59.50;;;;;;4208494;28;20050;-66
2022/04/27 02:30:21;;;;;;;12.95;6.82;;;15.70;59.50;;;;;;4208422;28;20121;-65
2022/04/27 02:32:45;;;;;;;10.85;7.35;;;15.70;59.50;;;;;;4208952;28;20142;-66
2022/04/27 02:35:09;;;;;;;9.70;7.18;;;15.60;59.50;;;;;;4208803;28;20075;-66
2022/04/27 02:37:32;;;;;;;7.85;7.05;;;15.70;59.60;;;;;;4209022;28;20729;-66
2022/04/27 02:39:55;;;;;;;14.23;7.93;;;15.60;59.60;;;;;;4208874;28;20047;-66
2022/04/27 02:42:17;;;;;;;9.88;7.70;;;15.60;59.60;;;;;;4208860;28;20047;-67
2022/04/27 02:44:39;;;;;;;8.55;7.70;;;15.60;59.60;;;;;;4208560;28;20143;-66
2022/04/27 02:47:03;;;;;;;9.63;8.05;;;15.60;59.70;;;;;;4208453;28;20051;-65
2022/04/27 02:52:07;;;;;;;11.73;8.05;;;15.60;59.70;;;;;;4208685;28;20044;-65
2022/04/27 02:54:52;;;;;;;11.55;8.48;;;15.60;59.80;;;;;;4209458;28;20708;-65
2022/04/27 02:57:16;;;;;;;14.20;8.07;;;15.60;59.80;;;;;;4208565;28;20052;-65
2022/04/27 02:59:38;;;;;;;10.23;7.57;;;15.60;59.80;;;;;;4207771;28;20527;-65
2022/04/27 03:02:00;;;;;;;15.63;8.05;;;15.60;60.70;;;;;;4208686;28;20052;-65
2022/04/27 03:04:23;;;;;;;9.07;7.57;;;15.60;59.90;;;;;;4208443;28;20093;-65
2022/04/27 03:06:46;;;;;;;10.85;7.90;;;15.60;59.90;;;;;;4208536;28;20056;-65
2022/04/27 03:09:10;;;;;;;12.52;7.78;;;15.60;59.90;;;;;;4193222;28;20573;-64
2022/04/27 03:11:32;;;;;;;11.32;8.10;;;15.60;60.00;;;;;;4207834;28;20058;-64
2022/04/27 03:14:14;;;;;;;11.27;7.90;;;15.60;60.00;;;;;;4209299;28;20045;-65
2022/04/27 03:16:37;;;;;;;9.73;7.95;;;15.50;60.00;;;;;;4207870;28;20055;-65
2022/04/27 03:18:59;;;;;;;13.65;8.38;;;15.50;60.00;;;;;;4209257;28;20044;-65
2022/04/27 03:21:23;;;;;;;12.75;7.40;;;15.50;60.00;;;;;;4207935;28;20593;-65
2022/04/27 03:23:45;;;;;;;13.80;7.72;;;15.50;60.00;;;;;;4209407;28;20380;-64
2022/04/27 03:26:08;;;;;;;9.75;7.07;;;15.60;60.10;;;;;;4207843;28;20050;-66
2022/04/27 03:28:31;;;;;;;8.45;7.13;;;15.50;60.00;;;;;;4209233;28;20176;-65
2022/04/27 03:30:53;;;;;;;9.27;6.90;;;15.50;60.10;;;;;;4208094;28;20079;-65
2022/04/27 03:33:30;;;;;;;9.05;7.03;;;15.50;60.10;;;;;;4207761;28;20056;-65
2022/04/27 03:35:52;;;;;;;10.27;7.35;;;15.50;60.20;;;;;;4193138;28;20059;-65
2022/04/27 03:38:19;;;;;;;8.95;7.57;;;15.50;60.20;;;;;;4192644;28;20098;-64
2022/04/27 03:40:42;;;;;;;13.35;8.07;;;15.50;60.20;;;;;;4204972;28;20435;-65
2022/04/27 03:43:04;;;;;;;9.38;7.20;;;15.50;60.40;;;;;;4207467;28;20083;-65
2022/04/27 03:45:27;;;;;;;10.30;6.63;;;15.50;60.30;;;;;;4209198;28;20138;-65
2022/04/27 03:47:52;;;;;;;10.85;7.15;;;15.50;60.30;;;;;;4207338;28;20166;-65
2022/04/27 03:50:16;;;;;;;8.70;7.15;;;15.50;60.30;;;;;;4206737;28;20048;-65
2022/04/27 03:52:44;;;;;;;10.18;7.15;;;15.50;60.40;;;;;;4207235;28;20055;-65
2022/04/27 03:55:09;;;;;;;11.18;7.00;;;15.50;60.40;;;;;;4207136;28;20044;-66
2022/04/27 03:57:34;;;;;;;10.07;7.50;;;15.50;60.40;;;;;;4206981;28;20048;-66
2022/04/27 03:59:58;;;;;;;7.70;6.95;;;15.50;60.40;;;;;;4206777;28;20051;-66
2022/04/27 04:02:20;;;;;;;9.82;7.20;;;15.50;60.40;;;;;;4207793;28;20075;-66
2022/04/27 04:04:42;;;;;;;7.93;6.05;;;15.40;60.50;;;;;;4207453;28;20051;-64
2022/04/27 04:07:05;;;;;;;8.85;6.85;;;15.50;60.80;;;;;;4207477;28;20105;-65
2022/04/27 04:09:36;;;;;;;10.95;6.97;;;15.50;61.10;;;;;;4207142;28;20097;-66
2022/04/27 04:11:59;;;;;;;7.85;7.00;;;15.50;61.20;;;;;;4207115;28;20048;-66
2022/04/27 04:14:24;;;;;;;11.25;7.55;;;15.50;61.30;;;;;;4207932;28;20055;-66
2022/04/27 04:16:48;;;;;;;9.07;7.05;;;15.50;61.20;;;;;;4207430;28;20554;-66
2022/04/27 04:19:25;;;;;;;12.43;7.55;;;15.50;60.80;;;;;;4206752;28;20051;-66
2022/04/27 04:22:13;;;;;;;10.32;7.15;;;15.50;60.80;;;;;;4190666;28;20079;-66
2022/04/27 04:28:29;;;;;;;11.43;7.70;;;15.50;61.70;;;;;;4190580;28;20052;-66
2022/04/27 04:30:10;;;;;;;9.85;7.32;;;15.50;61.00;;;;;;4197945;28;20063;-66
2022/04/27 04:32:38;;;;;;;8.65;7.45;;;15.50;61.10;;;;;;4206920;28;20040;-66
2022/04/27 04:35:17;;;;;;;12.00;7.68;;;15.40;61.10;;;;;;4206286;28;20090;-66
2022/04/27 04:37:39;;;;;;;9.50;7.00;;;15.50;61.20;;;;;;4207526;28;20559;-67
2022/04/27 04:40:02;;;;;;;11.07;6.70;;;15.40;61.20;;;;;;4206905;28;20044;-67
2022/04/27 04:42:25;;;;;;;12.38;7.13;;;15.40;61.40;;;;;;4207458;28;20044;-66
2022/04/27 04:44:51;;;;;;;11.65;7.85;;;15.40;61.50;;;;;;4207291;28;20106;-66
2022/04/27 04:47:32;;;;;;;10.15;7.18;;;15.40;62.40;;;;;;4204704;28;20062;-66
2022/04/27 04:50:13;;;;;;;7.85;7.00;;;15.40;62.40;;;;;;4207336;28;20131;-66
2022/04/27 04:52:41;;;;;;;10.07;7.22;;;15.40;61.80;;;;;;4208424;28;20068;-66
2022/04/27 04:55:35;;;;;;;13.55;7.45;;;15.30;61.70;;;;;;4194213;28;20581;-66
2022/04/27 04:58:20;;;;;;;11.95;7.55;;;15.30;61.90;;;;;;4187310;28;20144;-67
2022/04/27 05:01:08;;;;;;;9.30;6.32;;;15.40;62.00;;;;;;4204404;28;20759;-67
2022/04/27 05:03:49;;;;;;;12.95;5.93;;;15.30;62.00;;;;;;4190983;28;20518;-66
2022/04/27 05:06:28;;;;;;;8.75;6.40;;;15.30;62.10;;;;;;4190113;28;20052;-66
2022/04/27 05:09:00;;;;;;;9.13;7.32;;;15.30;62.00;;;;;;4196134;28;20139;-66
2022/04/27 05:11:43;;;;;;;9.38;6.95;;;15.30;62.10;;;;;;4208104;28;20044;-66
2022/04/27 05:14:24;;;;;;;10.40;7.18;;;15.30;62.10;;;;;;4191717;28;20072;-66
2022/04/27 05:17:13;;;;;;;8.57;6.75;;;15.30;62.10;;;;;;4206318;28;20415;-65
2022/04/27 05:20:05;;;;;;;8.52;7.43;;;15.30;62.20;;;;;;4173149;28;20200;-65
2022/04/27 05:22:59;;;;;;;9.23;7.30;;;15.30;62.30;;;;;;4174759;28;20363;-66
2022/04/27 05:25:51;;;;;;;7.85;7.05;;;15.30;62.30;;;;;;4132161;28;20054;-66
2022/04/27 05:31:53;;;;;;;8.48;6.82;;;15.30;62.40;;;;;;4193327;28;20103;-66
2022/04/27 05:31:55;;;;;;;8.68;6.72;;;15.30;62.40;;;;;;4167866;28;20539;-66
2022/04/27 05:34:33;;;;;;;9.27;7.07;;;15.30;63.40;;;;;;4193263;28;20051;-64
2022/04/27 05:37:04;;;;;;;9.65;6.75;;;15.30;62.50;;;;;;4192998;28;20132;-64
2022/04/27 05:39:38;;;;;;;9.52;6.85;;;15.30;62.50;;;;;;4202118;28;20093;-63
2022/04/27 05:42:08;;;;;;;8.25;5.70;;;15.30;62.60;;;;;;4209625;28;20500;-64
2022/04/27 05:44:50;;;;;;;7.18;6.47;;;15.30;62.70;;;;;;4209680;28;20390;-63
2022/04/27 05:47:23;;;;;;;12.40;6.82;;;15.30;62.70;;;;;;4209270;28;20224;-65
2022/04/27 05:50:05;;;;;;;7.28;6.35;;;15.30;62.80;;;;;;4209072;28;20162;-64
2022/04/27 05:52:56;;;;;;;;;;;15.30;62.80;;;;;;4209896;28;20044;-68
2022/04/27 05:55:43;;;;;;;9.10;5.63;;;15.30;62.70;;;;;;4209255;28;19988;-66
2022/04/27 05:58:30;;;;;;;6.07;5.45;;;15.30;62.80;;;;;;4208318;28;20063;-67
2022/04/27 06:01:08;;;;;;;5.80;4.38;;;15.30;62.70;;;;;;4209349;28;20146;-69
2022/04/27 06:03:43;;;;;;;5.72;4.22;;;15.30;62.60;;;;;;4175442;28;20526;-68
2022/04/27 06:06:07;;;;;;;3.70;2.90;;;15.30;62.10;;;;;;4177551;28;20102;-68
2022/04/27 06:08:29;;;;;;;3.38;2.67;;;15.30;61.60;;;;;;4181817;28;20044;-68
2022/04/27 06:10:57;;;;;;;4.55;2.72;;;15.30;61.70;;;;;;4184517;28;20048;-65
2022/04/27 06:13:20;;;;;;;5.75;3.45;;;15.30;61.60;;;;;;4209698;28;20058;-67
2022/04/27 06:15:45;;;;;;;4.03;3.00;;;15.30;61.70;;;;;;4221583;28;20121;-66
2022/04/27 06:18:28;;;;;;;3.08;2.40;;;15.30;61.50;;;;;;4180254;28;20045;-67
2022/04/27 06:20:52;;;;;;;4.68;2.70;;;15.30;61.60;;;;;;4175522;28;20056;-67
2022/04/27 06:23:16;;;;;;;2.83;2.42;;;15.30;61.00;;;;;;4177179;28;20056;-66
2022/04/27 06:25:40;;;;;;;3.08;2.10;;;15.30;60.80;;;;;;4161095;28;20049;-66
2022/04/27 06:28:05;;;;;;;6.05;2.75;;;15.30;60.70;;;;;;4189728;28;20127;-66
2022/04/27 06:30:28;;;;;;;3.90;2.28;;;15.30;60.90;;;;;;4193803;28;20130;-68
2022/04/27 06:32:51;;;;;;;3.17;2.15;;;15.30;60.70;;;;;;4177647;28;20472;-67
2022/04/27 06:35:14;;;;;;;4.30;2.20;;;15.30;60.70;;;;;;4191417;28;20102;-66
2022/04/27 06:37:40;;;;;;;2.78;1.40;;;15.30;60.70;;;;;;4192226;28;20137;-66
2022/04/27 06:40:04;;;;;;;4.63;1.17;;;15.30;60.10;;;;;;4192103;28;20078;-66
2022/04/27 06:42:26;;;;;;;4.43;1.70;;;15.30;60.00;;;;;;4191009;28;20094;-66
2022/04/27 06:45:07;;;;;;;3.47;1.30;;;15.30;59.40;;;;;;4192998;28;20047;-66
2022/04/27 06:47:48;;;;;;;4.68;3.15;;;15.30;59.80;;;;;;4193105;28;20275;-66
2022/04/27 06:50:28;;;;;;;7.17;6.43;;;15.30;60.30;;;;;;4193009;28;20052;-66
2022/04/27 06:53:09;;;;;;;4.53;3.70;;;15.30;60.30;;;;;;4193228;28;20040;-66
2022/04/27 06:55:51;;;;;;;4.30;1.75;;;15.30;60.40;;;;;;4190218;28;20118;-66
2022/04/27 06:58:48;;;;;;;2.35;1.42;;;15.30;60.30;;;;;;4191737;28;20106;-67
2022/04/27 07:01:21;;;;;;;3.15;1.63;;;15.30;60.20;;;;;;4191678;28;20048;-64
2022/04/27 07:03:44;;;;;;;2.10;2.00;;;15.30;60.80;;;;;;4192267;28;20055;-66
2022/04/27 07:06:06;;;;;;;4.65;2.35;;;15.30;60.10;;;;;;4192603;28;20056;-66
2022/04/27 07:08:30;;;;;;;3.70;2.10;;;15.30;60.10;;;;;;4191503;28;20470;-66
2022/04/27 07:10:55;;;;;;;5.57;2.28;;;15.30;59.60;;;;;;4193092;28;20048;-66
2022/04/27 07:13:17;;;;;;;4.28;2.15;;;15.30;59.30;;;;;;4192987;28;20163;-66
2022/04/27 07:15:44;;;;;;;4.80;1.63;;;15.30;59.20;;;;;;4195655;28;20054;-67
2022/04/27 07:18:07;;;;;;;1.30;1.13;;;15.30;59.20;;;;;;4209757;28;20048;-67
2022/04/27 07:20:28;;;;;;;3.22;1.63;;;15.30;59.10;;;;;;4209352;28;20060;-67
2022/04/27 07:22:51;;;;;;;1.40;1.30;;;15.30;58.90;;;;;;4208225;28;20047;-66
2022/04/27 07:25:14;;;;;;;2.78;1.70;;;15.30;58.80;;;;;;4199003;28;20089;-66
2022/04/27 07:27:38;;;;;;;2.20;1.73;;;15.30;58.90;;;;;;4209344;28;20047;-67
2022/04/27 07:30:00;;;;;;;2.40;1.83;;;15.30;59.20;;;;;;4209163;28;20044;-67
2022/04/27 07:32:22;;;;;;;2.92;1.77;;;15.30;59.30;;;;;;4209455;28;20048;-67
2022/04/27 07:34:44;;;;;;;1.75;1.63;;;15.30;59.60;;;;;;4207711;28;20443;-67
2022/04/27 07:37:06;;;;;;;2.72;1.42;;;15.30;59.00;;;;;;4207613;28;20050;-65
2022/04/27 07:39:29;;;;;;;4.07;2.10;;;15.30;58.90;;;;;;4208933;28;20116;-66
2022/04/27 07:41:51;;;;;;;3.28;2.05;;;15.30;58.90;;;;;;4209355;28;20052;-66
2022/04/27 07:44:14;;;;;;;4.47;1.58;;;15.30;58.90;;;;;;4209198;28;20809;-66
2022/04/27 07:46:37;;;;;;;4.28;2.15;;;15.40;59.00;;;;;;4207944;28;20055;-66
2022/04/27 07:48:59;;;;;;;3.58;1.60;;;15.30;58.80;;;;;;4208974;28;20059;-66
2022/04/27 07:51:22;;;;;;;1.40;1.30;;;15.40;58.80;;;;;;4209400;28;20047;-64
2022/04/27 07:53:44;;;;;;;4.50;1.77;;;15.30;58.70;;;;;;4209093;28;20071;-65
2022/04/27 07:56:06;;;;;;;4.20;1.48;;;15.40;58.70;;;;;;4209174;28;20406;-64
2022/04/27 07:58:29;;;;;;;6.72;1.73;;;15.40;58.70;;;;;;4209147;28;20048;-64
2022/04/27 08:00:52;;;;;;;3.90;1.88;;;15.40;58.60;;;;;;4209650;28;20051;-64
2022/04/27 08:03:14;;;;;;;5.95;2.53;;;15.40;58.20;;;;;;4209424;28;20048;-64
2022/04/27 08:05:37;;;;;;;5.57;2.53;;;15.40;58.00;;;;;;4207597;28;20459;-64
2022/04/27 08:07:59;;;;;;;4.93;1.70;;;15.40;57.90;;;;;;4208249;28;20052;-64
2022/04/27 08:10:22;;;;;;;1.73;1.63;;;15.40;57.80;;;;;;4192542;28;20442;-64
2022/04/27 08:12:47;;;;;;;3.30;1.60;;;15.40;57.70;;;;;;4192125;28;20135;-65
2022/04/27 08:15:10;;;;;;;1.60;1.20;;;15.40;57.60;;;;;;4192620;28;20080;-65
2022/04/27 08:17:34;;;;;;;5.03;1.40;;;15.40;57.00;;;;;;4208576;28;20101;-64
2022/04/27 08:21:13;;;;;;;2.30;1.38;;;15.40;56.00;;;;;;4208730;28;20111;-64
2022/04/27 08:22:39;;;;;;;3.47;1.60;;;15.40;55.30;;;;;;4207921;28;20047;-65
2022/04/27 08:25:01;;;;;;;3.78;1.70;;;15.40;56.80;;;;;;4208643;28;20044;-65
2022/04/27 08:27:23;;;;;;;2.28;1.42;;;15.40;57.30;;;;;;4191544;28;20156;-66
2022/04/27 08:29:46;;;;;;;14.20;2.15;;;15.40;57.50;;;;;;4191726;28;20449;-64
2022/04/27 08:32:09;;;;;;;4.05;1.65;;;15.50;57.50;;;;;;4191813;28;20492;-65
2022/04/27 08:34:32;;;;;;;4.32;1.60;;;15.40;57.10;;;;;;4200893;28;20875;-64
2022/04/27 08:36:55;;;;;;;1.17;1.13;;;15.40;56.40;;;;;;4208293;28;20142;-65
2022/04/27 08:39:17;;;;;;;4.40;1.50;;;15.50;56.40;;;;;;4208590;28;20048;-65
2022/04/27 08:41:40;;;;;;;6.40;1.75;;;15.50;56.40;;;;;;4208641;28;20067;-64
2022/04/27 08:44:02;;;;;;;3.88;1.60;;;15.40;56.70;;;;;;4208188;28;20436;-64
2022/04/27 08:46:26;;;;;;;6.50;2.30;;;15.40;56.80;;;;;;4207325;28;20044;-65
2022/04/27 08:48:49;;;;;;;3.33;1.85;;;15.40;56.70;;;;;;4208372;28;20510;-65
2022/04/27 08:51:13;;;;;;;3.67;2.20;;;15.50;56.80;;;;;;4207977;28;20076;-65
2022/04/27 08:53:35;;;;;;;2.67;1.65;;;15.40;56.60;;;;;;4206596;28;20113;-64
2022/04/27 08:55:57;;;;;;;3.92;2.15;;;15.40;56.70;;;;;;4208015;28;20486;-64
2022/04/27 08:58:22;;;;;;;3.35;1.48;;;15.50;56.50;;;;;;4210516;28;20052;-65
2022/04/27 09:01:04;;;;;;;2.25;1.70;;;15.50;56.60;;;;;;4211937;28;20449;-64
2022/04/27 09:03:29;;;;;;;3.78;1.48;;;15.50;56.90;;;;;;4211278;28;20106;-65
2022/04/27 09:05:56;;;;;;;4.70;1.77;;;15.40;57.70;;;;;;4211491;28;20093;-65
2022/04/27 09:08:20;;;;;;;3.83;1.80;;;15.50;57.00;;;;;;4211415;28;20079;-64
2022/04/27 09:10:42;;;;;;;2.70;1.65;;;15.50;57.00;;;;;;4211619;28;20487;-64
2022/04/27 09:13:05;;;;;;;5.43;2.10;;;15.50;57.10;;;;;;4187389;28;20072;-64
2022/04/27 09:15:27;;;;;;;3.92;1.70;;;15.50;57.00;;;;;;4195174;28;20076;-64
2022/04/27 09:20:50;;;;;;;4.20;1.90;;;15.50;56.90;;;;;;4211110;28;20521;-64
2022/04/27 09:23:25;;;;;;;5.10;2.30;;;15.50;56.80;;;;;;4211387;28;20056;-65
2022/04/27 09:25:48;;;;;;;5.43;2.15;;;15.50;56.50;;;;;;4210921;28;20417;-65
2022/04/27 09:28:27;;;;;;;5.45;1.85;;;15.50;56.20;;;;;;4211397;28;20101;-63
2022/04/27 09:30:49;;;;;;;3.13;1.73;;;15.50;56.10;;;;;;4202757;28;20106;-65
2022/04/27 09:33:12;;;;;;;4.45;1.80;;;15.50;56.00;;;;;;4211644;28;20035;-64
2022/04/27 09:35:36;;;;;;;2.25;1.88;;;15.50;55.70;;;;;;4210919;28;20086;-65
2022/04/27 09:38:12;;;;;;;2.85;1.63;;;15.60;55.80;;;;;;4211059;28;20109;-65
2022/04/27 09:40:44;;;;;;;5.68;2.03;;;15.60;55.60;;;;;;4210824;28;20467;-65
2022/04/27 09:43:09;;;;;;;8.85;3.25;;;15.60;55.30;;;;;;4210625;28;20151;-65
2022/04/27 09:45:31;;;;;;;4.50;1.90;;;15.70;55.30;;;;;;4210642;28;20081;-65
2022/04/27 09:48:04;;;;;;;5.00;2.10;;;15.70;54.30;;;;;;4211241;28;20435;-65
2022/04/27 09:50:26;;;;;;;3.85;2.10;;;15.70;55.10;;;;;;4216801;27;20062;-64
2022/04/27 09:52:48;;;;;;;6.88;2.33;;;15.70;55.30;;;;;;4220395;28;20054;-64
2022/04/27 09:55:11;;;;;;;4.47;2.30;;;15.70;55.30;;;;;;4209054;28;20055;-65
2022/04/27 09:57:41;;;;;;;5.00;1.80;;;15.70;54.80;;;;;;4210795;28;20474;-65
2022/04/27 10:00:04;;;;;;;5.65;1.98;;;15.70;54.30;;;;;;4209918;28;20483;-65
2022/04/27 10:02:34;;;;;;;4.35;2.20;;;15.70;54.60;;;;;;4210569;28;20056;-64
2022/04/27 10:04:59;;;;;;;7.00;2.30;;;15.70;55.10;;;;;;4185773;28;20422;-65
2022/04/27 10:07:22;;;;;;;5.28;1.73;;;15.70;54.80;;;;;;4196363;28;20543;-65
2022/04/27 10:09:44;;;;;;;6.15;2.17;;;15.60;54.60;;;;;;4209585;28;20551;-64
2022/04/27 10:12:07;;;;;;;9.23;2.63;;;15.70;54.60;;;;;;4208557;28;20055;-65
2022/04/27 10:14:31;;;;;;;7.25;2.42;;;15.70;54.20;;;;;;4210445;28;20150;-65
2022/04/27 10:16:56;;;;;;;8.02;2.33;;;15.70;54.50;;;;;;4210485;28;20093;-64
2022/04/27 10:19:18;;;;;;;9.55;2.75;;;15.70;55.10;;;;;;4210332;28;20125;-65
2022/04/27 10:21:56;;;;;;;8.15;2.17;;;15.70;55.50;;;;;;4208887;28;20056;-64
2022/04/27 10:24:49;;;;;;;9.50;2.95;;;15.70;55.80;;;;;;4209868;28;20084;-64
2022/04/27 10:27:15;;;;;;;7.68;2.33;;;15.70;55.80;;;;;;4210516;28;20101;-65
2022/04/27 10:29:40;;;;;;;9.90;2.83;;;15.70;55.70;;;;;;4210182;28;20161;-65
2022/04/27 10:32:05;;;;;;;5.90;2.15;;;15.70;56.40;;;;;;4208751;28;20067;-65
2022/04/27 10:34:27;;;;;;;6.10;2.00;;;15.70;55.90;;;;;;4209921;28;20040;-64
2022/04/27 10:36:51;;;;;;;11.52;3.03;;;15.70;55.40;;;;;;4210025;28;20043;-64
2022/04/27 10:39:19;;;;;;;5.90;2.65;;;15.70;55.00;;;;;;4207391;28;20104;-65
2022/04/27 10:41:42;;;;;;;4.35;1.98;;;15.70;55.60;;;;;;4205950;28;20098;-64
2022/04/27 10:44:04;;;;;;;6.63;2.70;;;15.70;55.50;;;;;;4206731;28;20050;-64
2022/04/27 10:46:38;;;;;;;6.38;2.30;;;15.70;56.00;;;;;;4207446;28;20046;-65
2022/04/27 10:49:00;;;;;;;8.10;2.45;;;15.70;56.10;;;;;;4207218;28;20732;-65
2022/04/27 10:51:22;;;;;;;10.68;2.95;;;15.70;55.50;;;;;;4205918;28;20103;-65
2022/04/27 10:53:44;;;;;;;5.55;1.73;;;15.70;55.10;;;;;;4206976;28;20375;-64
2022/04/27 10:56:28;;;;;;;7.13;2.67;;;15.70;55.10;;;;;;4205387;28;20066;-66
2022/04/27 10:58:50;;;;;;;5.97;1.90;;;15.70;55.70;;;;;;4207325;28;20047;-66
2022/04/27 11:01:25;;;;;;;8.13;2.25;;;15.70;55.50;;;;;;4206207;28;20051;-67
2022/04/27 11:04:06;;;;;;;9.15;2.70;;;15.70;55.90;;;;;;4205476;28;20097;-66
2022/04/27 11:06:31;;;;;;;9.63;2.50;;;15.70;56.30;;;;;;4206571;28;20068;-66
2022/04/27 11:09:09;;;;;;;9.55;2.30;;;15.70;56.50;;;;;;4207285;28;20047;-65
2022/04/27 11:11:32;;;;;;;9.80;2.47;;;15.70;56.60;;;;;;4205530;28;20051;-66
2022/04/27 11:13:59;;;;;;;11.23;2.85;;;15.70;57.00;;;;;;4189578;28;20048;-66
2022/04/27 11:16:21;;;;;;;6.68;2.20;;;15.80;56.70;;;;;;4205596;28;20059;-66
2022/04/27 11:18:50;;;;;;;9.00;2.72;;;15.80;56.30;;;;;;4207125;28;20129;-66
2022/04/27 11:21:14;;;;;;;5.95;2.55;;;15.80;56.40;;;;;;4205085;28;20059;-65
2022/04/27 11:23:36;;;;;;;6.38;2.20;;;15.80;56.60;;;;;;4206954;28;20499;-66
2022/04/27 11:26:01;;;;;;;11.18;2.63;;;15.80;56.40;;;;;;4207338;28;20047;-66
2022/04/27 11:28:23;;;;;;;7.95;2.60;;;15.80;56.00;;;;;;4206982;28;20506;-66
2022/04/27 11:30:47;;;;;;;9.43;2.25;;;15.80;56.10;;;;;;4206478;28;20735;-66
2022/04/27 11:33:09;;;;;;;10.57;2.53;;;15.80;56.20;;;;;;4204801;28;20159;-65
2022/04/27 11:35:39;;;;;;;11.55;3.58;;;15.80;56.50;;;;;;4206358;28;20047;-65
2022/04/27 11:38:03;;;;;;;9.23;2.83;;;15.80;56.30;;;;;;4205300;28;20047;-66
2022/04/27 11:40:27;;;;;;;7.80;2.85;;;15.80;56.00;;;;;;4205870;28;20747;-66
2022/04/27 11:42:50;;;;;;;7.60;2.75;;;15.80;55.80;;;;;;4206885;28;20144;-65
2022/04/27 11:45:13;;;;;;;12.13;3.55;;;15.80;54.50;;;;;;4206623;28;20067;-66
2022/04/27 11:47:34;;;;;;;7.47;2.33;;;15.80;54.60;;;;;;4206675;28;20405;-65
2022/04/27 11:49:58;;;;;;;11.07;4.35;;;15.80;55.10;;;;;;4205838;28;20052;-65
2022/04/27 11:52:21;;;;;;;10.80;3.55;;;15.70;55.60;;;;;;4214807;28;20054;-67
2022/04/27 11:54:45;;;;;;;6.38;2.35;;;15.70;55.80;;;;;;4206414;28;20075;-65
2022/04/27 11:57:08;;;;;;;9.68;4.10;;;15.70;55.70;;;;;;4206587;28;20058;-66
2022/04/27 11:59:42;;;;;;;9.20;2.53;;;15.70;55.50;;;;;;4205328;28;20071;-64
2022/04/27 12:02:04;;;;;;;8.93;2.33;;;15.70;54.90;;;;;;4204891;28;20055;-66
2022/04/27 12:04:27;;;;;;;14.45;4.97;;;15.70;54.30;;;;;;4205760;28;20047;-66
2022/04/27 12:06:49;;;;;;;12.40;2.88;;;15.70;54.60;;;;;;4206420;28;20047;-66
2022/04/27 12:09:16;;;;;;;7.65;3.03;;;15.70;54.30;;;;;;4206227;28;20048;-67
2022/04/27 12:11:41;;;;;;;10.60;2.47;;;15.70;54.50;;;;;;4205117;28;20060;-66
2022/04/27 12:14:03;;;;;;;11.75;4.13;;;15.70;54.80;;;;;;4204280;28;20044;-67
2022/04/27 12:16:30;;;;;;;9.65;2.00;;;15.70;55.40;;;;;;4205718;28;20071;-67
2022/04/27 12:18:53;;;;;;;9.40;3.22;;;15.70;55.30;;;;;;4206117;28;20123;-66
2022/04/27 12:21:20;;;;;;;12.02;2.53;;;15.70;55.10;;;;;;4206269;28;20471;-66
2022/04/27 12:23:43;;;;;;;7.80;2.92;;;15.70;55.30;;;;;;4205452;28;20402;-66
2022/04/27 12:26:07;;;;;;;8.85;3.10;;;15.70;55.10;;;;;;4206305;28;20097;-66
2022/04/27 12:28:32;;;;;;;11.30;2.88;;;15.70;55.10;;;;;;4206395;28;20056;-67
2022/04/27 12:30:56;;;;;;;9.70;2.38;;;15.70;55.00;;;;;;4205802;28;20067;-66
2022/04/27 12:33:19;;;;;;;8.77;3.13;;;15.70;55.40;;;;;;4208034;28;20078;-66
2022/04/27 12:38:25;;;;;;;7.85;2.40;;;15.70;56.00;;;;;;4209128;28;20075;-66
2022/04/27 12:40:48;;;;;;;7.82;2.40;;;15.70;56.00;;;;;;4208740;28;20060;-66
2022/04/27 12:43:13;;;;;;;11.68;2.72;;;15.70;55.30;;;;;;4209332;28;20055;-65
2022/04/27 12:45:38;;;;;;;10.05;2.20;;;15.70;54.30;;;;;;4208939;28;20070;-65
2022/04/27 12:48:00;;;;;;;8.10;2.45;;;15.70;54.90;;;;;;4207620;28;20043;-64
2022/04/27 12:50:22;;;;;;;10.52;3.10;;;15.70;55.50;;;;;;4209461;28;20077;-64
2022/04/27 12:52:45;;;;;;;9.30;3.05;;;15.70;55.90;;;;;;4210192;28;20048;-64
2022/04/27 12:55:09;;;;;;;12.25;3.50;;;15.70;55.30;;;;;;4209208;28;22448;-64
2022/04/27 12:57:43;;;;;;;8.52;2.47;;;15.70;55.30;;;;;;4209296;28;20045;-64
2022/04/27 13:00:07;;;;;;;6.25;2.47;;;15.70;54.10;;;;;;4209269;28;20093;-64